<?xml version="1.0" encoding="UTF-8" standalone="no" ?>
<gpx xmlns="http://www.topografix.com/GPX/1/1" xmlns:xsi="http://www.w3.org/2001/XMLSchema-instance" xsi:schemaLocation="http://www.topografix.com/GPX/1/1 http://www.topografix.com/GPX/1/1/gpx.xsd" version="1.1" creator="VisuGPX - https://www.visugpx.com">
  <metadata>
    <name>Triton 2026 4kms</name>
    <desc><![CDATA[VTT 4kms pour bambinos]]></desc>
  </metadata>
  <wpt lat="45.40533" lon="5.54614">
    <ele>482.2</ele>
    <name><![CDATA[Ravitaillement]]></name>
    <desc><![CDATA[]]></desc>
  </wpt>
  <trk>
    <name><![CDATA[TRITON 2026 - VTT 4Kms-23505092]]></name>
    <trkseg>
      <trkpt lat="45.41286" lon="5.55585">
        <ele>470</ele>
        <time>2026-05-25T08:03:56Z</time>
      </trkpt>
      <trkpt lat="45.41255" lon="5.55585">
        <ele>471</ele>
        <time>2026-05-25T08:04:03Z</time>
      </trkpt>
      <trkpt lat="45.41247" lon="5.55577">
        <ele>471</ele>
        <time>2026-05-25T08:04:06Z</time>
      </trkpt>
      <trkpt lat="45.41222" lon="5.55543">
        <ele>471</ele>
        <time>2026-05-25T08:04:14Z</time>
      </trkpt>
      <trkpt lat="45.41201" lon="5.55526">
        <ele>471</ele>
        <time>2026-05-25T08:04:19Z</time>
      </trkpt>
      <trkpt lat="45.412" lon="5.55524">
        <ele>471</ele>
        <time>2026-05-25T08:04:20Z</time>
      </trkpt>
      <trkpt lat="45.41205" lon="5.55512">
        <ele>471</ele>
        <time>2026-05-25T08:04:22Z</time>
      </trkpt>
      <trkpt lat="45.41207" lon="5.55503">
        <ele>471</ele>
        <time>2026-05-25T08:04:23Z</time>
      </trkpt>
      <trkpt lat="45.41174" lon="5.55441">
        <ele>471</ele>
        <time>2026-05-25T08:04:36Z</time>
      </trkpt>
      <trkpt lat="45.41145" lon="5.55405">
        <ele>471</ele>
        <time>2026-05-25T08:04:45Z</time>
      </trkpt>
      <trkpt lat="45.41138" lon="5.55399">
        <ele>471</ele>
        <time>2026-05-25T08:04:47Z</time>
      </trkpt>
      <trkpt lat="45.41136" lon="5.55396">
        <ele>471</ele>
        <time>2026-05-25T08:04:48Z</time>
      </trkpt>
      <trkpt lat="45.41131" lon="5.55404">
        <ele>471</ele>
        <time>2026-05-25T08:04:50Z</time>
      </trkpt>
      <trkpt lat="45.41056" lon="5.55324">
        <ele>473</ele>
        <time>2026-05-25T08:05:11Z</time>
      </trkpt>
      <trkpt lat="45.41019" lon="5.55284">
        <ele>472</ele>
        <time>2026-05-25T08:05:22Z</time>
      </trkpt>
      <trkpt lat="45.40971" lon="5.55229">
        <ele>470</ele>
        <time>2026-05-25T08:05:37Z</time>
      </trkpt>
      <trkpt lat="45.40977" lon="5.55219">
        <ele>470</ele>
        <time>2026-05-25T08:05:39Z</time>
      </trkpt>
      <trkpt lat="45.40975" lon="5.55211">
        <ele>470</ele>
        <time>2026-05-25T08:05:40Z</time>
      </trkpt>
      <trkpt lat="45.4096" lon="5.55168">
        <ele>468</ele>
        <time>2026-05-25T08:05:48Z</time>
      </trkpt>
      <trkpt lat="45.4094" lon="5.55128">
        <ele>466</ele>
        <time>2026-05-25T08:05:56Z</time>
      </trkpt>
      <trkpt lat="45.40921" lon="5.551">
        <ele>465</ele>
        <time>2026-05-25T08:06:03Z</time>
      </trkpt>
      <trkpt lat="45.40911" lon="5.55081">
        <ele>466</ele>
        <time>2026-05-25T08:06:06Z</time>
      </trkpt>
      <trkpt lat="45.40886" lon="5.55035">
        <ele>469</ele>
        <time>2026-05-25T08:06:16Z</time>
      </trkpt>
      <trkpt lat="45.40864" lon="5.5498">
        <ele>472</ele>
        <time>2026-05-25T08:06:26Z</time>
      </trkpt>
      <trkpt lat="45.40833" lon="5.54886">
        <ele>475</ele>
        <time>2026-05-25T08:06:43Z</time>
      </trkpt>
      <trkpt lat="45.4082" lon="5.54853">
        <ele>476</ele>
        <time>2026-05-25T08:06:50Z</time>
      </trkpt>
      <trkpt lat="45.4081" lon="5.5483">
        <ele>477</ele>
        <time>2026-05-25T08:06:54Z</time>
      </trkpt>
      <trkpt lat="45.4078" lon="5.54766">
        <ele>481</ele>
        <time>2026-05-25T08:07:07Z</time>
      </trkpt>
      <trkpt lat="45.40748" lon="5.54705">
        <ele>485</ele>
        <time>2026-05-25T08:07:19Z</time>
      </trkpt>
      <trkpt lat="45.4073" lon="5.54673">
        <ele>485</ele>
        <time>2026-05-25T08:07:26Z</time>
      </trkpt>
      <trkpt lat="45.40722" lon="5.54666">
        <ele>485</ele>
        <time>2026-05-25T08:07:28Z</time>
      </trkpt>
      <trkpt lat="45.40585" lon="5.54636">
        <ele>483</ele>
        <time>2026-05-25T08:08:00Z</time>
      </trkpt>
      <trkpt lat="45.40533" lon="5.54614">
        <ele>483</ele>
        <time>2026-05-25T08:08:13Z</time>
      </trkpt>
      <trkpt lat="45.40515" lon="5.54606">
        <ele>483</ele>
        <time>2026-05-25T08:08:17Z</time>
      </trkpt>
      <trkpt lat="45.40552" lon="5.54568">
        <ele>485</ele>
        <time>2026-05-25T08:08:28Z</time>
      </trkpt>
      <trkpt lat="45.40576" lon="5.54533">
        <ele>486</ele>
        <time>2026-05-25T08:08:36Z</time>
      </trkpt>
      <trkpt lat="45.40602" lon="5.54509">
        <ele>486</ele>
        <time>2026-05-25T08:08:43Z</time>
      </trkpt>
      <trkpt lat="45.40617" lon="5.54495">
        <ele>487</ele>
        <time>2026-05-25T08:08:48Z</time>
      </trkpt>
      <trkpt lat="45.40811" lon="5.544">
        <ele>497</ele>
        <time>2026-05-25T08:09:35Z</time>
      </trkpt>
      <trkpt lat="45.40894" lon="5.54363">
        <ele>502</ele>
        <time>2026-05-25T08:09:56Z</time>
      </trkpt>
      <trkpt lat="45.40904" lon="5.54353">
        <ele>502</ele>
        <time>2026-05-25T08:09:59Z</time>
      </trkpt>
      <trkpt lat="45.40946" lon="5.54534">
        <ele>493</ele>
        <time>2026-05-25T08:10:30Z</time>
      </trkpt>
      <trkpt lat="45.41061" lon="5.54508">
        <ele>497</ele>
        <time>2026-05-25T08:10:57Z</time>
      </trkpt>
      <trkpt lat="45.41151" lon="5.54488">
        <ele>501</ele>
        <time>2026-05-25T08:11:18Z</time>
      </trkpt>
      <trkpt lat="45.41246" lon="5.54433">
        <ele>502</ele>
        <time>2026-05-25T08:11:42Z</time>
      </trkpt>
      <trkpt lat="45.4141" lon="5.54416">
        <ele>504</ele>
        <time>2026-05-25T08:12:21Z</time>
      </trkpt>
      <trkpt lat="45.41433" lon="5.54407">
        <ele>505</ele>
        <time>2026-05-25T08:12:26Z</time>
      </trkpt>
      <trkpt lat="45.41433" lon="5.54409">
        <ele>505</ele>
        <time>2026-05-25T08:12:27Z</time>
      </trkpt>
      <trkpt lat="45.41435" lon="5.5442">
        <ele>505</ele>
        <time>2026-05-25T08:12:28Z</time>
      </trkpt>
      <trkpt lat="45.41438" lon="5.54439">
        <ele>504</ele>
        <time>2026-05-25T08:12:32Z</time>
      </trkpt>
      <trkpt lat="45.41455" lon="5.54464">
        <ele>503</ele>
        <time>2026-05-25T08:12:37Z</time>
      </trkpt>
      <trkpt lat="45.41462" lon="5.54485">
        <ele>502</ele>
        <time>2026-05-25T08:12:41Z</time>
      </trkpt>
      <trkpt lat="45.41464" lon="5.54498">
        <ele>501</ele>
        <time>2026-05-25T08:12:43Z</time>
      </trkpt>
      <trkpt lat="45.4149" lon="5.54511">
        <ele>497</ele>
        <time>2026-05-25T08:12:50Z</time>
      </trkpt>
      <trkpt lat="45.41509" lon="5.54518">
        <ele>496</ele>
        <time>2026-05-25T08:12:54Z</time>
      </trkpt>
      <trkpt lat="45.41528" lon="5.54536">
        <ele>494</ele>
        <time>2026-05-25T08:13:00Z</time>
      </trkpt>
      <trkpt lat="45.41537" lon="5.54547">
        <ele>493</ele>
        <time>2026-05-25T08:13:02Z</time>
      </trkpt>
      <trkpt lat="45.41547" lon="5.54566">
        <ele>491</ele>
        <time>2026-05-25T08:13:06Z</time>
      </trkpt>
      <trkpt lat="45.41548" lon="5.54572">
        <ele>490</ele>
        <time>2026-05-25T08:13:07Z</time>
      </trkpt>
      <trkpt lat="45.41546" lon="5.54605">
        <ele>486</ele>
        <time>2026-05-25T08:13:13Z</time>
      </trkpt>
      <trkpt lat="45.41547" lon="5.54623">
        <ele>485</ele>
        <time>2026-05-25T08:13:16Z</time>
      </trkpt>
      <trkpt lat="45.41588" lon="5.54669">
        <ele>483</ele>
        <time>2026-05-25T08:13:28Z</time>
      </trkpt>
      <trkpt lat="45.41599" lon="5.5468">
        <ele>483</ele>
        <time>2026-05-25T08:13:31Z</time>
      </trkpt>
      <trkpt lat="45.4163" lon="5.54727">
        <ele>483</ele>
        <time>2026-05-25T08:13:42Z</time>
      </trkpt>
      <trkpt lat="45.41646" lon="5.54755">
        <ele>483</ele>
        <time>2026-05-25T08:13:48Z</time>
      </trkpt>
      <trkpt lat="45.41659" lon="5.54781">
        <ele>483</ele>
        <time>2026-05-25T08:13:53Z</time>
      </trkpt>
      <trkpt lat="45.41661" lon="5.54793">
        <ele>482</ele>
        <time>2026-05-25T08:13:55Z</time>
      </trkpt>
      <trkpt lat="45.41661" lon="5.54795">
        <ele>482</ele>
        <time>2026-05-25T08:13:55Z</time>
      </trkpt>
      <trkpt lat="45.41647" lon="5.54815">
        <ele>480</ele>
        <time>2026-05-25T08:14:00Z</time>
      </trkpt>
      <trkpt lat="45.41635" lon="5.54832">
        <ele>478</ele>
        <time>2026-05-25T08:14:04Z</time>
      </trkpt>
      <trkpt lat="45.41618" lon="5.54805">
        <ele>478</ele>
        <time>2026-05-25T08:14:10Z</time>
      </trkpt>
      <trkpt lat="45.4157" lon="5.54728">
        <ele>479</ele>
        <time>2026-05-25T08:14:27Z</time>
      </trkpt>
      <trkpt lat="45.41522" lon="5.54706">
        <ele>480</ele>
        <time>2026-05-25T08:14:38Z</time>
      </trkpt>
      <trkpt lat="45.41464" lon="5.54677">
        <ele>481</ele>
        <time>2026-05-25T08:14:53Z</time>
      </trkpt>
      <trkpt lat="45.41419" lon="5.54639">
        <ele>483</ele>
        <time>2026-05-25T08:15:05Z</time>
      </trkpt>
      <trkpt lat="45.41409" lon="5.54683">
        <ele>480</ele>
        <time>2026-05-25T08:15:12Z</time>
      </trkpt>
      <trkpt lat="45.41405" lon="5.54698">
        <ele>480</ele>
        <time>2026-05-25T08:15:15Z</time>
      </trkpt>
      <trkpt lat="45.41391" lon="5.54736">
        <ele>478</ele>
        <time>2026-05-25T08:15:22Z</time>
      </trkpt>
      <trkpt lat="45.41386" lon="5.54749">
        <ele>478</ele>
        <time>2026-05-25T08:15:25Z</time>
      </trkpt>
      <trkpt lat="45.41347" lon="5.54874">
        <ele>471</ele>
        <time>2026-05-25T08:15:47Z</time>
      </trkpt>
      <trkpt lat="45.41322" lon="5.5491">
        <ele>469</ele>
        <time>2026-05-25T08:15:55Z</time>
      </trkpt>
      <trkpt lat="45.41295" lon="5.54948">
        <ele>468</ele>
        <time>2026-05-25T08:16:04Z</time>
      </trkpt>
      <trkpt lat="45.41289" lon="5.5496">
        <ele>468</ele>
        <time>2026-05-25T08:16:07Z</time>
      </trkpt>
      <trkpt lat="45.41288" lon="5.54973">
        <ele>468</ele>
        <time>2026-05-25T08:16:09Z</time>
      </trkpt>
      <trkpt lat="45.41288" lon="5.54991">
        <ele>467</ele>
        <time>2026-05-25T08:16:12Z</time>
      </trkpt>
      <trkpt lat="45.41298" lon="5.5509">
        <ele>466</ele>
        <time>2026-05-25T08:16:28Z</time>
      </trkpt>
      <trkpt lat="45.41299" lon="5.55117">
        <ele>465</ele>
        <time>2026-05-25T08:16:33Z</time>
      </trkpt>
      <trkpt lat="45.41296" lon="5.55145">
        <ele>465</ele>
        <time>2026-05-25T08:16:37Z</time>
      </trkpt>
      <trkpt lat="45.41287" lon="5.55183">
        <ele>464</ele>
        <time>2026-05-25T08:16:44Z</time>
      </trkpt>
      <trkpt lat="45.41287" lon="5.5519">
        <ele>464</ele>
        <time>2026-05-25T08:16:45Z</time>
      </trkpt>
      <trkpt lat="45.41292" lon="5.5521">
        <ele>464</ele>
        <time>2026-05-25T08:16:48Z</time>
      </trkpt>
      <trkpt lat="45.41296" lon="5.55253">
        <ele>464</ele>
        <time>2026-05-25T08:16:55Z</time>
      </trkpt>
      <trkpt lat="45.41292" lon="5.55312">
        <ele>465</ele>
        <time>2026-05-25T08:17:05Z</time>
      </trkpt>
      <trkpt lat="45.41293" lon="5.55398">
        <ele>466</ele>
        <time>2026-05-25T08:17:19Z</time>
      </trkpt>
      <trkpt lat="45.41286" lon="5.55412">
        <ele>467</ele>
        <time>2026-05-25T08:17:22Z</time>
      </trkpt>
      <trkpt lat="45.41243" lon="5.55452">
        <ele>470</ele>
        <time>2026-05-25T08:17:34Z</time>
      </trkpt>
      <trkpt lat="45.41239" lon="5.55457">
        <ele>470</ele>
        <time>2026-05-25T08:17:35Z</time>
      </trkpt>
      <trkpt lat="45.41207" lon="5.55503">
        <ele>471</ele>
        <time>2026-05-25T08:17:46Z</time>
      </trkpt>
      <trkpt lat="45.41205" lon="5.55512">
        <ele>471</ele>
        <time>2026-05-25T08:17:48Z</time>
      </trkpt>
      <trkpt lat="45.412" lon="5.55524">
        <ele>471</ele>
        <time>2026-05-25T08:17:50Z</time>
      </trkpt>
      <trkpt lat="45.41201" lon="5.55526">
        <ele>471</ele>
        <time>2026-05-25T08:17:50Z</time>
      </trkpt>
      <trkpt lat="45.41222" lon="5.55543">
        <ele>471</ele>
        <time>2026-05-25T08:17:56Z</time>
      </trkpt>
      <trkpt lat="45.41247" lon="5.55577">
        <ele>471</ele>
        <time>2026-05-25T08:18:04Z</time>
      </trkpt>
      <trkpt lat="45.41255" lon="5.55585">
        <ele>471</ele>
        <time>2026-05-25T08:18:06Z</time>
      </trkpt>
      <trkpt lat="45.41283" lon="5.55585">
        <ele>470</ele>
        <time>2026-05-25T08:18:13Z</time>
      </trkpt>
    </trkseg>
  </trk>
</gpx>